Time;durP1;ratioP1;P1;durP2;ratioP2;P2;SDS_P1;SDS_P2;PMS_P1;PMS_P2;Temp;Humidity;BMP_temperature;BMP_pressure;BME280_temperature;BME280_humidity;BME280_pressure;Samples;Min_cycle;Max_cycle;Signal;HPM_P1;HPM_P2
2023/08/05 00:01:08;;;;;;;7.95;3.20;;;16.80;99.90;;;17.41;73.84;100612.00;4974185;28;20081;-82
2023/08/05 00:03:37;;;;;;;7.85;3.00;;;16.80;99.90;;;17.39;73.88;100616.84;4975118;28;20130;-82
2023/08/05 00:06:04;;;;;;;7.03;3.08;;;16.80;99.90;;;17.38;73.49;100607.97;4976219;28;20472;-82
2023/08/05 00:08:31;;;;;;;7.13;3.13;;;16.80;99.90;;;17.37;73.51;100616.28;4973985;28;20073;-82
2023/08/05 00:10:58;;;;;;;11.35;3.65;;;16.80;99.90;;;17.36;73.31;100615.47;4982719;28;20098;-81
2023/08/05 00:13:26;;;;;;;7.00;3.03;;;16.70;99.90;;;17.34;73.16;100608.72;4970684;28;20113;-81
2023/08/05 00:15:53;;;;;;;7.80;3.20;;;16.70;99.90;;;17.32;73.04;100608.13;4971515;28;20074;-82
2023/08/05 00:18:20;;;;;;;5.88;3.13;;;16.70;99.90;;;17.31;72.96;100607.31;4974196;28;20054;-82
2023/08/05 00:20:50;;;;;;;8.38;3.38;;;16.70;99.90;;;17.30;72.91;100615.66;4975282;28;20068;-82
2023/08/05 00:23:19;;;;;;;8.05;3.08;;;16.70;99.90;;;17.29;72.70;100611.34;4976985;28;20043;-82
2023/08/05 00:25:46;;;;;;;5.93;3.00;;;16.60;99.90;;;17.27;72.75;100611.59;4968950;28;20055;-82
2023/08/05 00:28:14;;;;;;;6.63;3.20;;;16.60;99.90;;;17.23;72.72;100608.59;4978397;28;20769;-82
2023/08/05 00:30:41;;;;;;;7.60;2.97;;;16.60;99.90;;;17.22;72.89;100606.13;4977213;28;20067;-82
2023/08/05 00:33:08;;;;;;;13.57;4.82;;;16.60;99.90;;;17.21;72.79;100599.13;4975374;28;20146;-82
2023/08/05 00:35:36;;;;;;;9.57;3.50;;;16.60;99.90;;;17.19;72.94;100590.50;4967947;28;20039;-81
2023/08/05 00:38:04;;;;;;;9.18;3.42;;;16.60;99.90;;;17.19;72.88;100595.88;4971820;28;20463;-82
2023/08/05 00:40:32;;;;;;;8.10;3.58;;;16.60;99.90;;;17.16;72.86;100596.38;4973159;28;20051;-82
2023/08/05 00:42:59;;;;;;;6.40;3.45;;;16.60;99.90;;;17.14;72.96;100596.63;4971821;28;20656;-82
2023/08/05 00:45:26;;;;;;;7.68;3.65;;;16.50;99.90;;;17.13;73.00;100600.41;4994143;28;20134;-82
2023/08/05 00:47:54;;;;;;;7.57;3.35;;;16.50;99.90;;;17.12;73.49;100589.84;4981916;28;20046;-82
2023/08/05 00:50:22;;;;;;;5.38;3.47;;;16.50;99.90;;;17.11;73.80;100596.31;4976259;28;20035;-82
2023/08/05 00:52:51;;;;;;;9.35;4.22;;;16.50;99.90;;;17.08;74.12;100583.31;4974798;28;20046;-82
2023/08/05 00:55:20;;;;;;;7.65;4.00;;;16.50;99.90;;;17.08;74.19;100578.78;4982229;28;20046;-82
2023/08/05 00:57:47;;;;;;;8.85;3.83;;;16.50;99.90;;;17.10;74.30;100575.81;4981758;28;20053;-82
2023/08/05 01:00:14;;;;;;;7.70;3.83;;;16.50;99.90;;;17.11;74.34;100574.75;4972698;28;20109;-82
2023/08/05 01:02:42;;;;;;;6.95;3.85;;;16.50;99.90;;;17.11;74.25;100572.88;4972856;28;20071;-82
2023/08/05 01:05:09;;;;;;;9.38;3.95;;;16.50;99.90;;;17.11;74.02;100569.34;4967145;28;20097;-82
2023/08/05 01:07:39;;;;;;;7.88;3.85;;;16.50;99.90;;;17.10;73.79;100571.25;4988737;28;20046;-82
2023/08/05 01:10:08;;;;;;;6.22;3.38;;;16.50;99.90;;;17.07;73.62;100574.44;4974130;28;20113;-82
2023/08/05 01:12:36;;;;;;;8.23;3.83;;;16.50;99.90;;;17.06;73.51;100578.19;4971917;28;20038;-82
2023/08/05 01:15:04;;;;;;;6.97;4.00;;;16.50;99.90;;;17.06;73.41;100585.47;4978399;28;20085;-83
2023/08/05 01:17:31;;;;;;;8.68;4.15;;;16.40;99.90;;;17.05;73.68;100575.75;4981705;28;20061;-82
2023/08/05 01:20:00;;;;;;;9.93;3.95;;;16.50;99.90;;;17.06;73.41;100572.00;4974846;28;20086;-82
2023/08/05 01:22:41;;;;;;;6.13;3.60;;;16.50;99.90;;;17.04;73.26;100574.13;4976705;28;20129;-81
2023/08/05 01:25:26;;;;;;;9.57;4.05;;;16.40;99.90;;;17.03;73.00;100570.63;4978105;28;20349;-82
2023/08/05 01:27:55;;;;;;;10.90;3.92;;;16.40;99.90;;;17.03;72.72;100575.19;4990690;28;20051;-82
2023/08/05 01:30:24;;;;;;;8.27;3.65;;;16.40;99.90;;;16.99;72.70;100562.22;4971645;28;20065;-82
2023/08/05 01:32:52;;;;;;;6.35;3.88;;;16.30;99.90;;;16.98;72.80;100566.00;4988464;28;20047;-82
2023/08/05 01:35:23;;;;;;;8.18;3.40;;;16.30;99.90;;;16.95;72.37;100566.50;4980068;28;20074;-82
2023/08/05 01:37:50;;;;;;;8.25;3.88;;;16.30;99.90;;;16.94;72.39;100564.88;4974851;28;20054;-82
2023/08/05 01:40:19;;;;;;;6.28;3.80;;;16.30;99.90;;;16.92;72.19;100569.66;4983860;28;20675;-82
2023/08/05 01:42:46;;;;;;;8.07;3.72;;;16.30;99.90;;;16.91;72.29;100568.03;4977585;28;20079;-82
2023/08/05 01:45:14;;;;;;;6.60;3.80;;;16.30;99.90;;;16.89;72.43;100566.69;4994979;28;20070;-82
2023/08/05 01:47:41;;;;;;;7.88;4.03;;;16.30;99.90;;;16.89;72.26;100570.19;4975053;28;20133;-82
2023/08/05 01:50:09;;;;;;;10.05;3.97;;;16.20;99.90;;;16.87;72.06;100566.09;4974483;28;20077;-82
2023/08/05 01:52:37;;;;;;;8.82;3.75;;;16.20;99.90;;;16.84;72.18;100570.13;4973587;28;20049;-82
2023/08/05 01:55:05;;;;;;;6.13;3.58;;;16.20;99.90;;;16.83;71.76;100576.56;4975206;28;20043;-82
2023/08/05 01:57:34;;;;;;;6.30;3.38;;;16.20;99.90;;;16.81;71.70;100581.38;4958581;28;20411;-82
2023/08/05 02:00:02;;;;;;;5.50;3.63;;;16.20;99.90;;;16.78;71.33;100581.88;4987526;28;20559;-82
2023/08/05 02:02:40;;;;;;;7.07;3.47;;;16.10;99.90;;;16.75;71.51;100579.69;4980169;28;20085;-82
2023/08/05 02:05:08;;;;;;;7.78;4.05;;;16.10;99.90;;;16.75;71.26;100587.78;4982057;28;20137;-81
2023/08/05 02:07:36;;;;;;;8.90;3.67;;;16.00;99.90;;;16.73;71.21;100577.25;4976457;28;20039;-81
2023/08/05 02:10:04;;;;;;;7.30;4.05;;;16.00;99.90;;;16.71;71.33;100568.59;4965957;28;20497;-82
2023/08/05 02:12:32;;;;;;;7.63;3.60;;;16.00;99.90;;;16.71;71.22;100565.91;4990854;28;20050;-82
2023/08/05 02:14:59;;;;;;;6.75;3.53;;;16.00;99.90;;;16.68;71.24;100574.44;4991363;28;20039;-82
2023/08/05 02:17:27;;;;;;;8.35;3.88;;;16.00;99.90;;;16.66;71.27;100568.50;4976205;28;20476;-82
2023/08/05 02:19:54;;;;;;;6.63;3.30;;;16.00;99.90;;;16.67;71.46;100566.63;4983368;28;20066;-82
2023/08/05 02:22:21;;;;;;;6.85;3.80;;;16.00;99.90;;;16.65;71.58;100568.75;4974494;28;20057;-82
2023/08/05 02:24:48;;;;;;;9.98;4.20;;;16.00;99.90;;;16.65;72.00;100568.75;4968769;28;20137;-82
2023/08/05 02:27:16;;;;;;;7.75;4.28;;;16.00;99.90;;;16.64;72.37;100567.97;4994194;28;20050;-82
2023/08/05 02:29:44;;;;;;;6.75;4.10;;;16.00;99.90;;;16.61;72.89;100556.84;4980092;28;20046;-82
2023/08/05 02:32:12;;;;;;;7.30;4.03;;;16.00;99.90;;;16.62;73.08;100553.91;4991334;28;20417;-82
2023/08/05 02:34:39;;;;;;;7.70;4.60;;;16.00;99.90;;;16.64;73.28;100550.94;4986127;28;20129;-82
2023/08/05 02:37:06;;;;;;;6.70;4.40;;;16.00;99.90;;;16.64;73.27;100557.19;4991555;28;20129;-82
2023/08/05 02:39:33;;;;;;;8.82;4.70;;;16.00;99.90;;;16.65;73.34;100558.00;4993353;28;20465;-82
2023/08/05 02:42:01;;;;;;;9.77;4.70;;;16.00;99.90;;;16.64;73.30;100553.66;4985665;28;20049;-82
2023/08/05 02:44:28;;;;;;;8.10;4.35;;;16.00;99.90;;;16.63;73.40;100555.53;4973921;28;20146;-82
2023/08/05 02:46:56;;;;;;;7.13;5.03;;;16.00;99.90;;;16.63;73.21;100558.22;4972082;28;20051;-82
2023/08/05 02:49:24;;;;;;;7.00;4.88;;;16.00;99.90;;;16.62;73.53;100547.72;4974894;28;20051;-82
2023/08/05 02:51:51;;;;;;;7.53;4.88;;;16.00;99.90;;;16.62;73.34;100545.00;4990159;28;20043;-82
2023/08/05 02:54:18;;;;;;;6.32;4.55;;;16.00;99.90;;;16.60;73.34;100555.22;4993724;28;20141;-82
2023/08/05 02:56:45;;;;;;;8.20;4.97;;;16.00;99.90;;;16.60;73.23;100555.22;4991848;28;20070;-82
2023/08/05 02:59:13;;;;;;;8.45;4.97;;;16.00;99.90;;;16.58;73.31;100546.56;4968135;28;20097;-82
2023/08/05 03:01:41;;;;;;;7.97;4.97;;;16.00;99.90;;;16.58;73.26;100551.97;4972636;28;20046;-82
2023/08/05 03:04:09;;;;;;;10.63;5.13;;;16.00;99.90;;;16.59;73.25;100550.88;4974320;28;20043;-82
2023/08/05 03:06:37;;;;;;;8.73;4.90;;;16.00;99.90;;;16.58;73.03;100547.38;4993401;28;20049;-82
2023/08/05 03:09:04;;;;;;;9.43;5.07;;;15.90;99.90;;;16.58;73.27;100541.19;4991867;28;20065;-82
2023/08/05 03:11:32;;;;;;;8.20;5.40;;;15.90;99.90;;;16.57;73.02;100536.88;4977791;28;20038;-82
2023/08/05 03:13:59;;;;;;;9.18;4.78;;;15.90;99.90;;;16.55;73.26;100531.75;4988149;28;20066;-82
2023/08/05 03:16:27;;;;;;;8.35;5.32;;;15.90;99.90;;;16.53;73.20;100535.72;4974037;28;20492;-82
2023/08/05 03:19:02;;;;;;;8.18;4.90;;;15.90;99.90;;;16.51;73.49;100535.19;4976857;28;20049;-82
2023/08/05 03:21:32;;;;;;;8.55;5.03;;;15.90;99.90;;;16.51;73.32;100537.88;4999037;28;20072;-82
2023/08/05 03:24:01;;;;;;;11.98;4.68;;;15.90;99.90;;;16.52;73.56;100547.56;4988031;28;20042;-82
2023/08/05 03:26:30;;;;;;;9.55;4.95;;;15.90;99.90;;;16.52;73.64;100544.88;4993469;28;20045;-82
2023/08/05 03:29:02;;;;;;;8.50;4.65;;;15.90;99.90;;;16.50;73.83;100542.44;4972960;28;20129;-82
2023/08/05 03:31:31;;;;;;;8.68;4.80;;;15.90;99.90;;;16.49;74.16;100532.72;4986493;28;20134;-82
2023/08/05 03:34:00;;;;;;;7.72;5.35;;;15.90;99.90;;;16.53;74.22;100535.72;4971771;28;20035;-82
2023/08/05 03:36:32;;;;;;;11.90;5.50;;;15.90;99.90;;;16.52;74.26;100529.53;4976147;28;20055;-82
2023/08/05 03:38:59;;;;;;;7.90;4.93;;;15.90;99.90;;;16.52;74.32;100526.84;4969733;28;20046;-82
2023/08/05 03:41:26;;;;;;;9.32;4.78;;;15.90;99.90;;;16.51;74.58;100521.72;4979815;28;20085;-82
2023/08/05 03:43:57;;;;;;;9.05;4.70;;;15.90;99.90;;;16.52;74.92;100518.78;4969895;28;20051;-82
2023/08/05 03:46:24;;;;;;;7.70;4.83;;;15.90;99.90;;;16.51;74.87;100519.84;4983283;28;20043;-82
2023/08/05 03:48:51;;;;;;;9.07;4.50;;;15.90;99.90;;;16.51;75.04;100510.94;4972534;28;20813;-82
2023/08/05 03:51:19;;;;;;;9.40;4.75;;;15.90;99.90;;;16.50;74.87;100515.53;4973066;28;20047;-82
2023/08/05 03:53:47;;;;;;;6.65;4.90;;;15.90;99.90;;;16.49;74.97;100516.56;4987889;28;20045;-82
2023/08/05 03:56:19;;;;;;;7.22;4.55;;;15.90;99.90;;;16.51;75.10;100506.38;4980193;28;20046;-82
2023/08/05 03:58:47;;;;;;;7.88;4.85;;;16.00;99.90;;;16.49;74.85;100513.88;4967921;28;20460;-82
2023/08/05 04:01:17;;;;;;;6.53;4.85;;;15.90;99.90;;;16.49;74.73;100505.78;4975502;28;20077;-82
2023/08/05 04:03:44;;;;;;;15.57;4.82;;;15.90;99.90;;;16.49;74.52;100508.47;4964276;28;20076;-82
2023/08/05 04:06:12;;;;;;;13.65;5.15;;;15.90;99.90;;;16.47;74.36;100506.06;4972428;28;20097;-82
2023/08/05 04:08:40;;;;;;;8.85;4.30;;;15.90;99.90;;;16.45;74.38;100502.81;4971913;28;20042;-82
2023/08/05 04:11:11;;;;;;;8.45;4.63;;;15.90;99.90;;;16.44;74.36;100506.53;4994911;28;20397;-82
2023/08/05 04:13:39;;;;;;;5.82;4.53;;;15.90;99.90;;;16.44;74.35;100511.94;4973018;28;20157;-82
2023/08/05 04:16:08;;;;;;;8.70;4.35;;;15.80;99.90;;;16.44;74.47;100509.22;4990529;28;20126;-82
2023/08/05 04:18:37;;;;;;;10.68;4.75;;;15.80;99.90;;;16.41;74.56;100507.06;4985868;28;20101;-82
2023/08/05 04:21:05;;;;;;;9.55;4.78;;;15.80;99.90;;;16.39;74.64;100509.16;4983630;28;20050;-82
2023/08/05 04:23:34;;;;;;;6.75;4.30;;;15.80;99.90;;;16.37;74.98;100516.69;4977749;28;20039;-82
2023/08/05 04:26:04;;;;;;;10.07;4.93;;;15.80;99.90;;;16.39;75.11;100509.16;4978210;28;20042;-82
2023/08/05 04:28:33;;;;;;;8.20;5.10;;;15.80;99.90;;;16.41;75.39;100500.88;4974206;28;20050;-82
2023/08/05 04:31:01;;;;;;;7.97;5.60;;;15.90;99.90;;;16.42;75.28;100497.09;4993116;28;20050;-83
2023/08/05 04:33:32;;;;;;;8.52;5.75;;;15.90;99.90;;;16.42;75.48;100492.53;4993870;28;20046;-83
2023/08/05 04:36:00;;;;;;;9.65;6.07;;;15.90;99.90;;;16.42;75.56;100489.03;4980745;28;20039;-85
2023/08/05 04:38:27;;;;;;;14.45;7.00;;;15.90;99.90;;;16.44;75.62;100479.63;4988137;28;20137;-86
2023/08/05 04:40:54;;;;;;;11.60;6.28;;;15.90;99.90;;;16.42;75.63;100473.69;4987509;28;20086;-85
2023/08/05 04:43:22;;;;;;;9.80;5.82;;;15.90;99.90;;;16.40;75.74;100470.44;4986198;28;20160;-86
2023/08/05 04:45:51;;;;;;;9.77;5.97;;;15.90;99.90;;;16.37;75.65;100470.94;4979011;28;20505;-86
2023/08/05 04:48:18;;;;;;;11.23;7.38;;;15.90;99.90;;;16.32;76.28;100457.41;4987554;28;20082;-86
2023/08/05 04:50:45;;;;;;;13.85;8.27;;;15.80;99.90;;;16.34;76.38;100459.84;4971871;28;20035;-86
2023/08/05 04:53:15;;;;;;;12.40;8.80;;;15.90;99.90;;;16.34;76.62;100459.84;4991321;28;20051;-85
2023/08/05 04:55:43;;;;;;;16.30;10.20;;;15.90;99.90;;;16.34;77.00;100449.88;4992350;28;20050;-85
2023/08/05 04:58:11;;;;;;;14.05;9.60;;;15.90;99.90;;;16.37;77.28;100453.97;4975878;28;20761;-85
2023/08/05 05:00:39;;;;;;;17.58;10.68;;;15.90;99.90;;;16.41;77.13;100457.78;4975584;28;20039;-85
2023/08/05 05:03:08;;;;;;;18.52;11.25;;;16.00;99.90;;;16.46;77.56;100452.47;4972456;28;20066;-86
2023/08/05 05:05:37;;;;;;;20.85;12.00;;;16.00;99.90;;;16.52;77.64;100458.72;4976317;28;20508;-86
2023/08/05 05:08:04;;;;;;;24.15;13.15;;;16.10;99.90;;;16.56;78.11;100454.47;4959010;28;20859;-86
2023/08/05 05:10:32;;;;;;;21.42;12.48;;;16.10;99.90;;;16.63;77.56;100445.13;4989904;28;20053;-86
2023/08/05 05:12:59;;;;;;;21.85;12.95;;;16.20;99.90;;;16.73;77.64;100456.03;4986389;28;20670;-86
2023/08/05 05:15:29;;;;;;;19.13;12.57;;;16.30;99.90;;;16.83;77.63;100465.31;4974252;28;20055;-87
2023/08/05 05:17:56;;;;;;;17.17;10.90;;;16.40;99.90;;;16.90;77.10;100465.94;4975376;28;20045;-87
2023/08/05 05:20:25;;;;;;;17.90;10.52;;;16.50;99.90;;;16.94;76.68;100448.19;4975240;28;20073;-87
2023/08/05 05:22:52;;;;;;;18.52;11.23;;;16.60;99.90;;;17.03;76.56;100456.63;4988345;28;20078;-87
2023/08/05 05:25:20;;;;;;;19.50;11.07;;;16.70;99.90;;;17.15;76.76;100449.22;4979863;28;20411;-89
2023/08/05 05:27:47;;;;;;;15.25;10.82;;;16.80;99.90;;;17.21;76.62;100462.47;4975026;28;20047;-88
2023/08/05 05:30:15;;;;;;;19.02;12.52;;;16.90;99.90;;;17.30;76.79;100454.75;4980765;28;20064;-88
2023/08/05 05:32:42;;;;;;;19.67;11.85;;;17.10;99.90;;;17.38;76.53;100456.16;4985082;28;20053;-88
2023/08/05 05:35:10;;;;;;;18.95;11.82;;;17.20;99.90;;;17.47;76.83;100455.44;4971529;28;20047;-89
2023/08/05 05:37:38;;;;;;;19.00;11.27;;;17.30;99.90;;;17.50;77.36;100451.41;4999019;28;20096;-88
2023/08/05 05:40:08;;;;;;;21.52;13.23;;;17.30;99.90;;;17.54;77.44;100454.41;4993893;28;20054;-88
2023/08/05 05:42:35;;;;;;;21.45;11.82;;;17.40;99.90;;;17.60;77.46;100466.84;4983338;28;20070;-88
2023/08/05 05:45:02;;;;;;;14.70;9.90;;;17.50;99.90;;;17.65;76.53;100456.09;4983932;28;20046;-88
2023/08/05 05:47:30;;;;;;;18.10;11.70;;;17.60;99.90;;;17.74;77.22;100446.50;4996466;28;20054;-87
2023/08/05 05:49:57;;;;;;;25.33;14.48;;;17.70;99.90;;;17.82;77.84;100445.22;4974444;28;20046;-85
2023/08/05 05:52:24;;;;;;;26.40;15.80;;;17.80;99.90;;;17.83;76.75;100444.13;4983870;28;20050;-86
2023/08/05 05:54:54;;;;;;;22.02;15.13;;;17.80;99.90;;;17.79;76.66;100449.22;4983669;28;20052;-86
2023/08/05 05:57:23;;;;;;;23.42;16.00;;;17.80;99.90;;;17.69;77.15;100455.31;4974586;28;20494;-86
2023/08/05 05:59:51;;;;;;;23.33;14.50;;;17.70;99.90;;;17.68;78.13;100458.28;4989121;28;20112;-87
2023/08/05 06:02:18;;;;;;;19.70;14.18;;;17.60;99.90;;;17.73;78.18;100463.75;4969196;28;20109;-87
2023/08/05 06:04:47;;;;;;;21.73;14.25;;;17.70;99.90;;;17.81;78.63;100462.44;4998310;28;20042;-86
2023/08/05 06:07:14;;;;;;;29.80;15.60;;;17.80;99.90;;;17.95;78.13;100464.44;4983764;28;20506;-86
2023/08/05 06:09:42;;;;;;;22.17;15.05;;;17.90;99.90;;;18.07;78.56;100466.13;4969677;28;20049;-86
2023/08/05 06:12:10;;;;;;;23.60;14.90;;;18.10;99.90;;;18.12;78.12;100463.47;4972686;28;20043;-86
2023/08/05 06:14:38;;;;;;;24.45;15.40;;;18.20;99.90;;;18.05;78.27;100468.28;4956945;28;20460;-86
2023/08/05 06:17:06;;;;;;;26.35;16.05;;;18.10;99.90;;;17.95;77.91;100460.91;4990823;28;20474;-86
2023/08/05 06:19:33;;;;;;;24.48;15.20;;;18.00;99.90;;;17.88;78.41;100458.47;4978621;28;20779;-86
2023/08/05 06:22:00;;;;;;;24.27;15.63;;;17.90;99.90;;;17.86;78.43;100457.91;4988825;28;20055;-86
2023/08/05 06:24:28;;;;;;;22.67;15.43;;;17.90;99.90;;;17.85;78.22;100450.06;4973650;28;20046;-87
2023/08/05 06:26:55;;;;;;;27.08;16.23;;;17.80;99.90;;;17.85;78.41;100456.28;4973007;28;20043;-85
2023/08/05 06:29:24;;;;;;;26.95;17.27;;;17.70;99.90;;;17.85;78.81;100464.38;4971122;28;20039;-89
2023/08/05 06:31:51;;;;;;;31.13;18.38;;;17.80;99.90;;;17.86;79.03;100467.88;4972219;28;20431;-89
2023/08/05 06:34:20;;;;;;;25.73;16.48;;;17.70;99.90;;;17.85;79.17;100468.94;4990539;28;20046;-89
2023/08/05 06:36:50;;;;;;;25.90;16.60;;;17.80;99.90;;;17.91;79.32;100470.59;4986618;28;20315;-88
2023/08/05 06:39:17;;;;;;;34.58;18.85;;;17.80;99.90;;;17.95;80.34;100461.72;4977338;28;20061;-87
2023/08/05 06:41:44;;;;;;;35.97;19.55;;;17.90;99.90;;;17.96;79.98;100476.88;4971594;28;20134;-88
2023/08/05 06:44:11;;;;;;;35.47;19.50;;;17.90;99.90;;;17.97;79.31;100475.78;4981315;28;20062;-88
2023/08/05 06:46:41;;;;;;;33.50;20.08;;;17.90;99.90;;;17.99;79.20;100475.53;4979859;28;20433;-87
2023/08/05 06:49:09;;;;;;;34.17;19.90;;;18.00;99.90;;;18.05;79.36;100474.47;4970593;28;20042;-87
2023/08/05 06:51:37;;;;;;;33.90;21.00;;;18.00;99.90;;;18.10;79.16;100479.09;4981414;28;20709;-88
2023/08/05 06:54:04;;;;;;;34.25;21.33;;;18.10;99.90;;;18.15;78.86;100479.94;4979050;28;20074;-88
2023/08/05 06:56:32;;;;;;;34.25;22.27;;;18.10;99.90;;;18.16;78.79;100473.47;4975007;28;20050;-87
2023/08/05 06:58:59;;;;;;;33.40;22.67;;;18.20;99.90;;;18.17;79.08;100468.91;4972571;28;20042;-87
2023/08/05 07:01:26;;;;;;;33.90;23.05;;;18.20;99.90;;;18.14;78.51;100467.53;4973279;28;20499;-87
2023/08/05 07:03:55;;;;;;;35.90;23.45;;;18.20;99.90;;;18.09;78.42;100456.69;4972628;28;20444;-87
2023/08/05 07:06:22;;;;;;;31.42;22.15;;;18.10;99.90;;;18.10;78.39;100462.91;4977342;28;20074;-86
2023/08/05 07:08:49;;;;;;;28.65;21.58;;;18.10;99.90;;;18.04;78.23;100458.56;4981362;28;20050;-86
2023/08/05 07:11:16;;;;;;;33.35;22.50;;;18.10;99.90;;;18.04;78.71;100461.25;4971514;28;20038;-86
2023/08/05 07:13:44;;;;;;;36.63;24.83;;;18.10;99.90;;;18.06;78.65;100459.13;4983983;28;20090;-86
2023/08/05 07:16:11;;;;;;;39.00;26.17;;;18.10;99.90;;;18.14;79.11;100461.31;4986908;28;20053;-86
2023/08/05 07:18:38;;;;;;;40.88;26.20;;;18.20;99.90;;;18.13;78.59;100459.69;4981564;28;20496;-86
2023/08/05 07:21:07;;;;;;;42.88;27.88;;;18.20;99.90;;;18.11;78.07;100451.88;4972049;28;20078;-88
2023/08/05 07:23:34;;;;;;;40.85;27.92;;;18.10;99.90;;;18.09;77.82;100455.88;4972618;28;20139;-88
2023/08/05 07:26:02;;;;;;;45.78;28.95;;;18.20;99.90;;;18.10;78.42;100447.50;4981310;28;20063;-87
2023/08/05 07:28:29;;;;;;;37.88;27.33;;;18.20;99.90;;;18.15;78.67;100450.25;4973475;28;20618;-90
2023/08/05 07:31:05;;;;;;;44.53;29.15;;;18.20;99.90;;;18.15;77.89;100447.53;4980171;28;20057;-89
2023/08/05 07:33:32;;;;;;;41.55;28.27;;;18.20;99.90;;;18.20;77.82;100430.56;4956584;28;20731;-89
2023/08/05 07:36:10;;;;;;;40.75;28.08;;;18.30;99.90;;;18.15;76.56;100439.44;4975246;28;20046;-89
2023/08/05 07:38:40;;;;;;;37.63;27.40;;;18.20;99.90;;;18.12;76.65;100441.88;4973024;28;20046;-89
2023/08/05 07:41:07;;;;;;;39.28;26.23;;;18.10;99.90;;;18.12;77.96;100433.78;4971845;28;20053;-89
2023/08/05 07:43:36;;;;;;;37.80;25.90;;;18.10;99.90;;;18.09;77.66;100416.19;4973471;28;20507;-88
2023/08/05 07:46:03;;;;;;;35.15;25.15;;;18.10;99.90;;;18.17;77.42;100418.41;4972618;28;20133;-89
2023/08/05 07:48:35;;;;;;;37.97;24.35;;;18.20;99.90;;;18.22;77.82;100415.75;4992015;28;20125;-89
2023/08/05 07:51:03;;;;;;;32.70;23.52;;;18.30;99.90;;;18.22;77.52;100409.53;4975456;28;20059;-89
2023/08/05 07:53:32;;;;;;;35.67;23.80;;;18.30;99.90;;;18.25;76.85;100406.28;4971546;28;20407;-89
2023/08/05 07:55:59;;;;;;;35.10;22.77;;;18.30;99.90;;;18.23;77.58;100409.25;4980500;28;20154;-89
2023/08/05 07:58:26;;;;;;;38.40;22.50;;;18.30;99.90;;;18.26;77.38;100410.63;4970051;28;20042;-89
2023/08/05 08:00:56;;;;;;;38.92;23.30;;;18.30;99.90;;;18.30;78.19;100400.94;4980359;28;20043;-89
2023/08/05 08:03:27;;;;;;;32.65;22.23;;;18.30;99.90;;;18.29;77.47;100396.59;4984348;28;20051;-89
2023/08/05 08:05:54;;;;;;;33.92;22.80;;;18.30;99.90;;;18.27;76.83;100387.94;4976126;28;20085;-89
2023/08/05 08:08:22;;;;;;;32.30;22.52;;;18.30;99.90;;;18.32;78.03;100385.28;4985001;28;20043;-89
2023/08/05 08:10:51;;;;;;;33.28;22.23;;;18.30;99.90;;;18.31;77.77;100382.84;4988035;28;20122;-89
2023/08/05 08:13:18;;;;;;;37.70;24.25;;;18.30;99.90;;;18.28;76.33;100381.47;4955886;28;20078;-89
2023/08/05 08:15:45;;;;;;;38.00;24.67;;;18.30;99.90;;;18.24;76.03;100391.16;4975011;28;20045;-89
2023/08/05 08:18:13;;;;;;;39.92;24.50;;;18.20;99.90;;;18.18;76.23;100378.72;4979808;28;20130;-89
2023/08/05 08:20:40;;;;;;;39.53;26.08;;;18.10;99.90;;;18.24;77.50;100383.06;4977759;28;20066;-85
2023/08/05 08:23:07;;;;;;;43.63;26.52;;;18.20;99.90;;;18.20;76.99;100379.25;4977395;28;20043;-84
2023/08/05 08:25:37;;;;;;;41.35;27.73;;;18.20;99.90;;;18.14;75.66;100377.63;4976250;28;21367;-85
2023/08/05 08:28:06;;;;;;;40.17;26.65;;;18.10;99.90;;;18.09;75.77;100383.00;4974674;28;20042;-85
2023/08/05 08:30:33;;;;;;;41.35;26.30;;;18.10;99.90;;;18.10;76.03;100368.44;4978201;28;20121;-84
2023/08/05 08:33:00;;;;;;;39.45;28.35;;;18.10;99.90;;;18.09;76.47;100375.72;4971962;28;20062;-84
2023/08/05 08:35:28;;;;;;;40.75;28.42;;;18.10;99.90;;;18.18;77.29;100373.34;4975128;28;20480;-85
2023/08/05 08:37:55;;;;;;;44.97;28.83;;;18.10;99.90;;;18.25;77.23;100373.88;4972188;28;20476;-85
2023/08/05 08:40:23;;;;;;;36.58;26.17;;;18.20;99.90;;;18.49;77.38;100364.25;4972331;28;20373;-86
2023/08/05 08:42:52;;;;;;;36.90;25.75;;;18.60;99.90;;;18.68;77.80;100361.03;4975160;28;20448;-85
2023/08/05 08:45:22;;;;;;;30.27;23.83;;;18.80;99.90;;;18.86;78.03;100352.47;4973538;28;20467;-90
2023/08/05 08:47:51;;;;;;;35.35;23.38;;;19.00;99.90;;;18.97;77.04;100354.09;4957199;28;20043;-89
2023/08/05 08:50:19;;;;;;;28.90;21.13;;;19.10;99.90;;;18.90;73.31;100345.44;4970626;28;20042;-88
2023/08/05 08:52:48;;;;;;;29.75;21.08;;;19.10;99.90;;;18.87;73.63;100347.88;4971360;28;20081;-87
2023/08/05 08:55:18;;;;;;;31.05;20.77;;;19.10;99.90;;;19.02;75.52;100343.28;4969283;28;20074;-88
2023/08/05 08:57:46;;;;;;;27.25;19.05;;;19.20;99.90;;;19.19;75.11;100334.91;4971217;28;20055;-86
2023/08/05 09:00:14;;;;;;;25.55;17.65;;;19.50;99.90;;;19.30;72.22;100327.59;4978188;28;20049;-85
2023/08/05 09:02:44;;;;;;;24.35;18.33;;;19.60;99.90;;;19.41;74.37;100328.38;4980420;28;20145;-83
2023/08/05 09:05:12;;;;;;;23.40;17.90;;;19.70;99.90;;;19.56;71.69;100325.63;4970826;28;20504;-83
2023/08/05 09:07:39;;;;;;;24.98;18.80;;;19.90;99.90;;;19.59;70.67;100327.81;4976499;28;20069;-83
2023/08/05 09:10:08;;;;;;;22.02;16.73;;;19.90;99.90;;;19.52;70.36;100321.84;4972295;28;20074;-83
2023/08/05 09:12:36;;;;;;;19.48;14.80;;;19.90;99.90;;;19.61;71.56;100308.63;4972501;28;20062;-83
2023/08/05 09:15:05;;;;;;;22.23;15.85;;;20.00;99.90;;;19.62;72.03;100304.81;4974336;28;20039;-83
2023/08/05 09:17:39;;;;;;;20.73;15.32;;;20.00;99.90;;;19.70;73.32;100291.53;4972871;28;20411;-83
2023/08/05 09:20:16;;;;;;;22.83;15.27;;;20.10;99.90;;;19.75;71.26;100288.00;4955583;28;20048;-83
2023/08/05 09:22:55;;;;;;;17.15;13.45;;;20.10;99.90;;;19.77;71.26;100285.84;4971263;28;20051;-83
2023/08/05 09:25:23;;;;;;;22.08;13.98;;;20.20;99.90;;;19.77;70.80;100275.81;4970202;28;20054;-83
2023/08/05 09:27:52;;;;;;;19.27;13.50;;;20.20;99.90;;;19.76;68.79;100281.50;4984668;28;20487;-83
2023/08/05 09:30:22;;;;;;;20.25;10.07;;;20.10;99.90;;;19.78;68.38;100282.84;4985126;28;20047;-81
2023/08/05 09:32:50;;;;;;;15.85;11.75;;;20.10;99.90;;;19.78;68.02;100272.03;4973937;28;20125;-83
2023/08/05 09:35:19;;;;;;;18.33;11.13;;;20.20;99.90;;;19.80;69.32;100269.84;4974351;28;20050;-84
2023/08/05 09:37:48;;;;;;;12.23;9.30;;;20.20;99.90;;;19.83;67.97;100263.09;4968970;28;20101;-84
2023/08/05 09:40:18;;;;;;;12.18;10.10;;;20.20;99.90;;;19.96;68.46;100270.59;4976923;28;20074;-85
2023/08/05 09:42:50;;;;;;;14.17;9.50;;;20.30;99.90;;;20.00;67.36;100274.34;4975877;28;20404;-84
2023/08/05 09:45:18;;;;;;;16.75;10.82;;;20.40;99.90;;;20.00;64.46;100268.94;4969326;28;20106;-84
2023/08/05 09:47:49;;;;;;;16.23;10.93;;;20.40;98.50;;;19.99;65.33;100259.19;4990078;28;20885;-85
2023/08/05 09:50:20;;;;;;;15.35;9.88;;;20.30;99.80;;;20.03;66.79;100259.47;4979572;28;20080;-85
2023/08/05 09:52:51;;;;;;;13.23;9.35;;;20.40;99.90;;;20.16;66.16;100256.16;4972006;28;20431;-85
2023/08/05 09:55:20;;;;;;;10.23;8.38;;;20.50;99.70;;;20.13;65.02;100254.00;4977792;28;20054;-85
2023/08/05 09:57:48;;;;;;;10.35;6.80;;;20.50;99.10;;;20.12;64.54;100251.56;4975991;28;20059;-85
2023/08/05 10:00:16;;;;;;;10.45;7.20;;;20.50;98.60;;;20.19;64.70;100249.34;4975140;28;20086;-85
2023/08/05 10:02:45;;;;;;;9.27;6.00;;;20.50;98.60;;;20.02;62.90;100247.81;4971663;28;21847;-84
2023/08/05 10:05:14;;;;;;;10.48;7.50;;;20.40;96.80;;;19.93;64.21;100248.69;4997239;28;20476;-82
2023/08/05 10:07:43;;;;;;;10.30;6.25;;;20.20;98.40;;;19.86;65.63;100240.84;4976147;28;20071;-83
2023/08/05 10:10:15;;;;;;;10.20;6.05;;;20.10;99.70;;;19.79;65.98;100246.59;4974191;28;20130;-83